Data for 06/07/2008

Time Sea-Level Adjusted Pressure Absolute Pressure Temperature Relative Humidity Dew Point   
(mb) (inHg) (mb) (inHg) (C) (F) (%) (C) (F)
00:05 1013 29.91 842 24.86 5.5 41.8 60 -1.7 28.9
00:10 1013 29.91 842 24.86 5.2 41.3 62 -1.4 29.4
00:15 1013 29.91 842 24.86 4.9 40.9 63 -1.5 29.3
00:20 1013 29.91 842 24.86 4.8 40.7 65 -1.1 30
00:25 1013 29.91 842 24.86 4.5 40.2 69 -0.7 30.7
00:30 1013 29.91 842 24.86 4.4 39.8 68 -1.1 30.1
00:35 1013 29.91 842 24.86 4.5 40.1 70 -0.4 31.2
00:40 1013 29.91 842 24.86 4 39.1 76 0.1 32.2
00:45 1013 29.91 842 24.86 3.7 38.6 78 0.1 32.2
00:50 1013 29.91 842 24.86 3.8 38.9 77 0.3 32.5
00:55 1013 29.91 842 24.86 4.2 39.5 76 0.2 32.4
01:00 1013 29.91 842 24.86 4.2 39.6 76 0.4 32.8
01:05 1013 29.91 842 24.86 4.1 39.4 78 0.6 33
01:10 1013 29.91 842 24.86 4 39.2 79 0.6 33.1
01:15 1013 29.91 842 24.86 3.9 39.1 79 0.6 33.1
01:20 1013 29.91 842 24.86 3.9 39 79 0.6 33
01:25 1013 29.91 842 24.86 3.9 39.1 79 0.6 33.1
01:30 1013 29.91 842 24.86 3.7 38.7 81 0.7 33.3
01:35 1013 29.91 842 24.86 3.5 38.3 82 0.7 33.2
01:40 1013 29.91 842 24.86 3.4 38.1 82 0.7 33.2
01:45 1013 29.91 842 24.86 3.3 38 82 0.6 33.1
01:50 1013 29.91 842 24.86 3.4 38 82 0.6 33
01:55 1013 29.91 842 24.86 3.3 38 82 0.5 32.9
02:00 1013 29.91 842 24.86 3.2 37.8 82 0.4 32.7
02:05 1013 29.91 842 24.86 3.2 37.7 81 0.3 32.5
02:10 1013 29.91 842 24.86 3.1 37.7 82 0.3 32.6
02:15 1013 29.91 842 24.86 3.1 37.5 82 0.3 32.5
02:20 1013 29.91 842 24.86 3.1 37.5 82 0.3 32.5
02:25 1013 29.91 842 24.86 3.1 37.6 81 0.2 32.3
02:30 1013 29.91 842 24.86 3.1 37.6 81 0.1 32.2
02:35 1013 29.91 842 24.86 3 37.5 81 0.1 32.2
02:40 1013 29.91 842 24.86 2.9 37.3 81 0 32
02:45 1013 29.91 842 24.86 2.7 36.9 81 -0.2 31.6
02:50 1013 29.91 842 24.86 2.8 37 81 -0.2 31.7
02:55 1013 29.91 842 24.86 2.5 36.6 81 -0.5 31.2
03:00 1013 29.91 842 24.86 2.5 36.5 80 -0.6 30.9
03:05 1013 29.91 842 24.86 2.5 36.5 79 -0.7 30.7
03:10 1013 29.91 842 24.86 2.5 36.6 78 -0.9 30.3
03:15 1013 29.91 842 24.86 2.6 36.7 78 -0.8 30.5
03:20 1013 29.91 842 24.86 2.5 36.6 77 -1.1 30.1
03:25 1013 29.91 842 24.86 2.5 36.6 77 -1.1 30
03:30 1013 29.91 842 24.86 2.3 36.2 79 -0.9 30.4
03:35 1013 29.91 842 24.86 2.1 35.8 81 -0.8 30.6
03:40 1013 29.91 842 24.86 2 35.5 82 -0.9 30.5
03:45 1013 29.91 842 24.86 2.1 35.8 81 -0.9 30.4
03:50 1013 29.91 842 24.86 2 35.6 81 -0.9 30.4
03:55 1013 29.91 842 24.86 2 35.5 81 -1 30.3
04:00 1013 29.91 842 24.86 1.9 35.4 81 -1.1 30
04:05 1013 29.91 842 24.86 1.9 35.5 80 -1.2 29.9
04:10 1013 29.91 842 24.86 2.1 35.8 80 -1.1 30
04:15 1013 29.91 842 24.86 2.1 35.9 80 -1 30.2
04:20 1013 29.91 842 24.86 2.3 36.1 79 -0.9 30.4
04:25 1013 29.91 842 24.86 2.4 36.3 79 -0.8 30.5
04:30 1013 29.91 842 24.86 2.4 36.3 80 -0.8 30.6
04:35 1013 29.91 842 24.86 2.4 36.3 80 -0.7 30.7
04:40 1013 29.91 842 24.86 2.5 36.4 80 -0.6 31
04:45 1013 29.91 842 24.86 2.5 36.6 80 -0.5 31
04:50 1013 29.91 842 24.86 2.4 36.3 81 -0.5 31.2
04:55 1013 29.91 842 24.86 2.5 36.6 80 -0.6 30.9
05:00 1013 29.91 842 24.86 2.6 36.7 79 -0.7 30.7
05:05 1013 29.91 842 24.86 2.7 36.8 78 -0.9 30.5
05:10 1013 29.91 842 24.86 2.7 36.9 78 -0.8 30.6
05:15 1013 29.91 842 24.86 2.5 36.6 79 -0.8 30.6
05:20 1013 29.91 842 24.86 2.4 36.4 78 -1 30.1
05:25 1013 29.91 842 24.86 2.7 36.8 77 -0.9 30.4
05:30 1013 29.91 842 24.86 2.7 36.8 78 -0.8 30.6
05:35 1013 29.91 842 24.86 2.4 36.2 80 -0.8 30.6
05:40 1013 29.91 842 24.86 2.2 36 80 -0.9 30.5
05:45 1013 29.91 842 24.86 2.2 35.9 81 -0.7 30.7
05:50 1013 29.91 842 24.86 2 35.6 82 -0.7 30.7
05:55 1013 29.91 842 24.86 2 35.6 82 -0.7 30.7
06:00 1013 29.91 842 24.86 2.4 36.2 81 -0.6 30.9
06:05 1013 29.91 842 24.86 2.4 36.4 81 -0.5 31.1
06:10 1013 29.91 842 24.86 2.6 36.7 80 -0.6 31
06:15 1013 29.91 842 24.86 2.9 37.3 79 -0.3 31.4
06:20 1013 29.91 842 24.86 3.1 37.6 79 -0.2 31.7
06:25 1013 29.91 842 24.86 3.1 37.6 78 -0.4 31.3
06:30 1013 29.91 842 24.86 3.3 38 76 -0.6 31
06:35 1013 29.91 842 24.86 3.5 38.3 75 -0.5 31.2
06:40 1013 29.91 842 24.86 3.7 38.6 75 -0.3 31.5
06:45 1013 29.91 842 24.86 3.7 38.7 76 -0.1 31.9
06:50 1013 29.91 843 24.89 3.8 38.8 80 0.6 33
06:55 1013 29.91 843 24.89 3.5 38.2 81 0.5 32.9
07:00 1013 29.91 843 24.89 3.1 37.6 82 0.4 32.8
07:05 1013 29.91 843 24.89 3.3 38 82 0.6 33
07:10 1013 29.91 843 24.89 3.7 38.7 80 0.6 33
07:15 1013 29.91 843 24.89 3.9 39.1 79 0.6 33
07:20 1013 29.91 843 24.89 4 39.2 79 0.6 33.2
07:25 1014 29.94 843 24.89 4.1 39.4 77 0.5 32.9
07:30 1014 29.94 843 24.89 4.3 39.7 77 0.6 33.1
07:35 1014 29.94 843 24.89 4.5 40.1 77 0.8 33.5
07:40 1014 29.94 843 24.89 4.9 40.9 76 1.1 33.9
07:45 1014 29.94 843 24.89 5 41 75 0.9 33.6
07:50 1014 29.94 843 24.89 5.1 41.2 74 0.9 33.6
07:55 1014 29.94 843 24.89 5.3 41.5 73 0.9 33.5
08:00 1014 29.94 843 24.89 5.3 41.5 73 0.9 33.5
08:05 1014 29.94 843 24.89 5.5 41.9 73 1 33.8
08:10 1014 29.94 843 24.89 5.6 42 70 0.6 33
08:15 1014 29.94 843 24.89 5.6 42 70 0.5 32.9
08:20 1014 29.94 843 24.89 5.6 42.1 69 0.3 32.5
08:25 1014 29.94 843 24.89 5.8 42.4 68 0.3 32.5
08:30 1014 29.94 843 24.89 5.9 42.7 67 0.3 32.5
08:35 1014 29.94 843 24.89 6.4 43.5 63 -0.2 31.6
08:40 1014 29.94 843 24.89 7.2 45 58 -0.4 31.3
08:45 1014 29.94 843 24.89 7.3 45.1 56 -1 30.2
08:50 1014 29.94 843 24.89 7.2 45 57 -0.8 30.5
08:55 1014 29.94 843 24.89 8 46.3 55 -0.4 31.2
09:00 1014 29.94 843 24.89 7.6 45.7 56 -0.5 31.2
09:05 1014 29.94 843 24.89 6.9 44.3 60 -0.5 31.2
09:10 1014 29.94 843 24.89 7.3 45.2 58 -0.4 31.2
09:15 1014 29.94 843 24.89 7.7 45.8 57 -0.4 31.2
09:20 1014 29.94 843 24.89 7.7 45.8 58 -0.1 31.8
09:25 1014 29.94 843 24.89 7.8 46 56 -0.4 31.4
09:30 1014 29.94 843 24.89 7.6 45.6 57 -0.3 31.5
09:35 1014 29.94 843 24.89 8.1 46.6 54 -0.6 31
09:40 1014 29.94 843 24.89 8.8 47.9 53 -0.1 31.8
09:45 1014 29.94 843 24.89 9.4 48.9 44 -2.3 27.8
09:50 1013 29.91 843 24.89 8.9 48 43 -2.9 26.8
09:55 1013 29.91 843 24.89 9 48.3 43 -2.8 27
10:00 1013 29.91 843 24.89 9 48.1 41 -3.5 25.7
10:05 1013 29.91 843 24.89 9 48.2 42 -3.1 26.5
10:10 1013 29.91 843 24.89 9.4 48.9 41 -3.1 26.4
10:15 1013 29.91 843 24.89 9.1 48.4 42 -3 26.5
10:20 1013 29.91 842 24.86 8.8 47.8 40 -4.2 24.5
10:25 1013 29.91 842 24.86 8.9 48 38 -4.7 23.6
10:30 1013 29.91 842 24.86 9.5 49.1 35 -5 22.9
10:35 1013 29.91 842 24.86 9.1 48.3 40 -3.9 25
10:40 1013 29.91 842 24.86 9.3 48.7 39 -3.9 25
10:45 1013 29.91 842 24.86 8.7 47.6 47 -1.9 28.7
10:50 1013 29.91 842 24.86 8.3 46.9 47 -2.4 27.7
10:55 1013 29.91 842 24.86 9.3 48.7 44 -2.3 27.8
11:00 1013 29.91 842 24.86 9.6 49.2 42 -2.5 27.5
11:05 1013 29.91 842 24.86 9.7 49.5 41 -3 26.7
11:10 1013 29.91 842 24.86 9.8 49.7 39 -3.4 25.9
11:15 1013 29.91 842 24.86 9.9 49.7 37 -4.1 24.7
11:20 1013 29.91 842 24.86 10.4 50.7 34 -4.9 23.2
11:25 1013 29.91 842 24.86 10.8 51.4 32 -5.1 22.7
11:30 1013 29.91 842 24.86 11.3 52.3 33 -4.4 24.1
11:35 1013 29.91 842 24.86 11.1 51.9 33 -4.4 24.1
11:40 1013 29.91 842 24.86 10.9 51.5 32 -5.2 22.7
11:45 1013 29.91 842 24.86 10.7 51.3 31 -5.7 21.7
11:50 1013 29.91 842 24.86 10.7 51.2 30 -6.2 20.9
11:55 1013 29.91 842 24.86 10.7 51.2 32 -5.4 22.3
12:00 1013 29.91 842 24.86 10.7 51.3 30 -6.1 21.1
12:05 1013 29.91 842 24.86 11.3 52.3 31 -5.1 22.9
12:10 1013 29.91 842 24.86 11.8 53.2 29 -5.5 22.1
12:15 1013 29.91 842 24.86 11.7 53.1 29 -5.7 21.8
12:20 1013 29.91 842 24.86 11.8 53.3 33 -3.7 25.3
12:25 1013 29.91 842 24.86 11 51.8 36 -3.5 25.7
12:30 1013 29.91 842 24.86 10.1 50.3 38 -3.5 25.6
12:35 1013 29.91 842 24.86 10 50.1 41 -2.7 27.1
12:40 1013 29.91 842 24.86 10.1 50.1 41 -2.5 27.4
12:45 1013 29.91 842 24.86 10.3 50.6 40 -2.6 27.3
12:50 1013 29.91 842 24.86 10.7 51.3 35 -4 24.8
12:55 1013 29.91 842 24.86 10.7 51.3 34 -4.6 23.8
13:00 1013 29.91 842 24.86 10.9 51.6 34 -4.2 24.5
13:05 1013 29.91 842 24.86 10.1 50.2 32 -5.6 21.9
13:10 1013 29.91 842 24.86 10.7 51.3 33 -5 23
13:15 1013 29.91 842 24.86 10.6 51 34 -4.8 23.4
13:20 1013 29.91 842 24.86 10.9 51.5 33 -4.8 23.3
13:25 1013 29.91 842 24.86 10.8 51.4 33 -4.7 23.6
13:30 1013 29.91 842 24.86 10.9 51.7 33 -4.8 23.3
13:35 1013 29.91 842 24.86 10.9 51.6 34 -4.4 24
13:40 1013 29.91 842 24.86 11.1 51.9 33 -4.7 23.5
13:45 1013 29.91 842 24.86 10.9 51.5 33 -4.9 23.1
13:50 1013 29.91 842 24.86 10.6 51.1 34 -4.6 23.6
13:55 1013 29.91 842 24.86 10.5 50.8 36 -3.9 24.9
14:00 1013 29.91 842 24.86 10.4 50.8 39 -2.8 27
14:05 1013 29.91 842 24.86 10.3 50.5 38 -3.2 26.2
14:10 1013 29.91 842 24.86 10.2 50.3 40 -2.8 27
14:15 1013 29.91 842 24.86 10.3 50.5 39 -3.1 26.4
14:20 1013 29.91 842 24.86 9.7 49.4 43 -2.3 27.9
14:25 1013 29.91 842 24.86 9.2 48.5 50 -0.7 30.8
14:30 1013 29.91 842 24.86 8 46.5 55 -0.5 31
14:35 1013 29.91 842 24.86 7.7 45.8 50 -2.1 28.3
14:40 1013 29.91 842 24.86 8 46.4 45 -3.2 26.3
14:45 1013 29.91 842 24.86 8.2 46.8 45 -3 26.6
14:50 1013 29.91 842 24.86 8.6 47.4 40 -4.3 24.3
14:55 1013 29.91 842 24.86 9.3 48.8 35 -5.5 22.2
15:00 1013 29.91 842 24.86 9.9 49.8 35 -4.6 23.6
15:05 1013 29.91 842 24.86 10.9 51.7 33 -4.5 23.9
15:10 1013 29.91 842 24.86 10.7 51.3 32 -5.4 22.3
15:15 1013 29.91 842 24.86 10.7 51.2 31 -5.6 21.8
15:20 1013 29.91 842 24.86 11.4 52.6 29 -6.2 20.9
15:25 1013 29.91 842 24.86 12 53.5 27 -6.3 20.6
15:30 1013 29.91 842 24.86 12.3 54.2 27 -6.1 21
15:35 1013 29.91 842 24.86 12.4 54.3 27 -6.3 20.7
15:40 1013 29.91 842 24.86 12.8 55 28 -5.2 22.7
15:45 1013 29.91 842 24.86 13 55.4 29 -4.5 23.9
15:50 1013 29.91 842 24.86 13.7 56.6 28 -4.4 24.1
15:55 1012 29.88 842 24.86 13.9 57 28 -4.5 23.9
16:00 1012 29.88 842 24.86 13.9 57 29 -3.9 24.9
16:05 1012 29.88 842 24.86 13.5 56.2 28 -4.5 23.9
16:10 1012 29.88 842 24.86 12.3 54.2 31 -4.3 24.3
16:15 1013 29.91 842 24.86 11.7 53.1 32 -4.5 24
16:20 1013 29.91 842 24.86 11.3 52.3 35 -3.6 25.5
16:25 1013 29.91 842 24.86 10.8 51.5 43 -1.3 29.7
16:30 1013 29.91 842 24.86 9.4 49 51 -0.1 31.9
16:35 1013 29.91 842 24.86 8.4 47 52 -1 30.3
16:40 1013 29.91 843 24.89 8.4 47 49 -1.8 28.7
16:45 1013 29.91 842 24.86 8.6 47.4 48 -1.8 28.7
16:50 1013 29.91 842 24.86 8.8 47.9 47 -1.8 28.8
16:55 1013 29.91 842 24.86 9.5 49.1 40 -3.6 25.6
17:00 1013 29.91 842 24.86 10.3 50.5 36 -4.2 24.5
17:05 1013 29.91 842 24.86 10.9 51.6 34 -4.4 24
17:10 1013 29.91 842 24.86 11.4 52.4 34 -3.9 25.1
17:15 1013 29.91 842 24.86 11.6 52.9 34 -3.6 25.6
17:20 1013 29.91 842 24.86 11.2 52.1 37 -2.9 26.8
17:25 1013 29.91 842 24.86 11.9 53.5 34 -3.5 25.7
17:30 1013 29.91 842 24.86 12 53.6 34 -3.3 26
17:35 1013 29.91 842 24.86 11.6 52.8 35 -3.3 26.1
17:40 1013 29.91 842 24.86 11.2 52.2 39 -2.1 28.2
17:45 1013 29.91 842 24.86 10.4 50.7 43 -1.5 29.3
17:50 1013 29.91 842 24.86 10.2 50.3 47 -0.7 30.8
17:55 1013 29.91 842 24.86 10.3 50.5 45 -1 30.2
18:00 1013 29.91 842 24.86 10.5 50.9 42 -1.7 29
18:05 1013 29.91 842 24.86 10.7 51.3 41 -1.9 28.5
18:10 1013 29.91 842 24.86 11 51.8 45 -0.4 31.2
18:15 1013 29.91 842 24.86 9.9 49.7 53 0.7 33.3
18:20 1013 29.91 842 24.86 9.7 49.5 54 0.8 33.4
18:25 1013 29.91 842 24.86 9.1 48.3 57 1.1 33.9
18:30 1013 29.91 842 24.86 8.5 47.3 58 0.8 33.5
18:35 1013 29.91 843 24.89 8.5 47.2 60 1.2 34.1
18:40 1014 29.94 843 24.89 8.6 47.4 63 1.8 35.3
18:45 1014 29.94 843 24.89 8.4 47.1 62 1.6 34.9
18:50 1014 29.94 843 24.89 8.2 46.8 63 1.6 34.9
18:55 1014 29.94 843 24.89 8 46.4 64 1.7 35.1
19:00 1014 29.94 843 24.89 8.2 46.7 65 2 35.7
19:05 1014 29.94 843 24.89 8.2 46.7 66 2.2 36
19:10 1014 29.94 843 24.89 8.2 46.8 63 1.6 34.9
19:15 1014 29.94 843 24.89 8.4 47 63 1.7 35.1
19:20 1014 29.94 843 24.89 8.6 47.4 63 2 35.6
19:25 1014 29.94 843 24.89 8.6 47.5 63 2 35.6
19:30 1014 29.94 843 24.89 8.7 47.6 62 1.9 35.3
19:35 1014 29.94 843 24.89 8.7 47.7 61 1.6 34.8
19:40 1014 29.94 843 24.89 8.7 47.7 62 1.9 35.5
19:45 1014 29.94 843 24.89 8.5 47.3 64 2.1 35.8
19:50 1014 29.94 843 24.89 8.3 47 65 2.2 36
19:55 1014 29.94 843 24.89 8.3 46.9 66 2.3 36.1
20:00 1014 29.94 844 24.92 8.2 46.8 65 2.1 35.7
20:05 1014 29.94 844 24.92 8.1 46.5 65 1.9 35.4
20:10 1015 29.97 844 24.92 8 46.5 65 1.8 35.3
20:15 1015 29.97 844 24.92 7.9 46.2 65 1.8 35.2
20:20 1015 29.97 844 24.92 7.5 45.4 68 2.1 35.7
20:25 1015 29.97 844 24.92 6.9 44.5 73 2.4 36.3
20:30 1015 29.97 844 24.92 6.3 43.4 73 1.8 35.3
20:35 1015 29.97 844 24.92 6.2 43.2 76 2.3 36.2
20:40 1014 29.94 844 24.92 6.3 43.4 77 2.6 36.7
20:45 1015 29.97 844 24.92 6 42.9 81 3 37.4
20:50 1015 29.97 844 24.92 5.8 42.4 82 3 37.3
20:55 1015 29.97 844 24.92 5.7 42.3 83 3.1 37.6
21:00 1015 29.97 844 24.92 5.6 42.1 85 3.2 37.8
21:05 1015 29.97 844 24.92 5.7 42.2 85 3.4 38.1
21:10 1015 29.97 844 24.92 5.8 42.4 83 3.2 37.7
21:15 1015 29.97 844 24.92 5.9 42.6 83 3.3 37.9
21:20 1015 29.97 844 24.92 5.9 42.6 83 3.2 37.7
21:25 1015 29.97 844 24.92 6 42.8 82 3.1 37.6
21:30 1015 29.97 844 24.92 6 42.8 83 3.3 37.9
21:35 1015 29.97 844 24.92 6 42.8 82 3.2 37.7
21:40 1015 29.97 844 24.92 5.9 42.6 84 3.4 38.1
21:45 1015 29.97 844 24.92 5.8 42.4 85 3.5 38.3
21:50 1015 29.97 844 24.92 5.7 42.2 85 3.4 38.1
21:55 1015 29.97 844 24.92 5.7 42.2 84 3.2 37.8
22:00 1015 29.97 844 24.92 5.7 42.2 83 3 37.5
22:05 1015 29.97 844 24.92 5.8 42.4 83 3.2 37.7
22:10 1015 29.97 844 24.92 5.8 42.4 83 3.2 37.8
22:15 1015 29.97 844 24.92 5.8 42.4 84 3.2 37.8
22:20 1015 29.97 844 24.92 6 42.8 79 2.7 36.8
22:25 1015 29.97 844 24.92 6.4 43.5 78 2.8 37.1
22:30 1015 29.97 844 24.92 6.4 43.5 78 2.8 37.1
22:35 1015 29.97 844 24.92 6.4 43.6 78 2.9 37.3
22:40 1015 29.97 844 24.92 6.5 43.7 78 3 37.4
22:45 1015 29.97 844 24.92 6.5 43.6 78 2.9 37.3
22:50 1015 29.97 844 24.92 6.4 43.5 78 2.8 37.1
22:55 1015 29.97 844 24.92 6.4 43.4 78 2.8 37.1
23:00 1015 29.97 844 24.92 6.3 43.3 79 2.9 37.2
23:05 1015 29.97 844 24.92 6.2 43.2 80 2.9 37.3
23:10 1015 29.97 844 24.92 6.1 43 80 3 37.4
23:15 1015 29.97 844 24.92 6.1 43 79 2.8 37
23:20 1015 29.97 844 24.92 6.2 43.1 79 2.8 37.1
23:25 1015 29.97 844 24.92 6.2 43.2 78 2.7 36.9
23:30 1015 29.97 844 24.92 6.2 43.2 78 2.6 36.7
23:35 1015 29.97 844 24.92 6.3 43.3 73 1.8 35.3
23:40 1015 29.97 844 24.92 6.5 43.6 72 1.8 35.3
23:45 1015 29.97 844 24.92 6.5 43.7 74 2.2 36
23:50 1015 29.97 844 24.92 6.4 43.5 74 2.1 35.7
23:55 1015 29.97 844 24.92 6.3 43.4 73 1.8 35.3
24:00 1015 29.97 844 24.92 6.3 43.3 70 1.3 34.3